sensor_id;sensor_type;location;lat;lon;timestamp;P1;durP1;ratioP1;P2;durP2;ratioP2
74344;SDS011;62776;50.518;6.732;2023-12-07T00:00:15;4.72;;;4.32;;
74344;SDS011;62776;50.518;6.732;2023-12-07T00:03:01;4.38;;;4.03;;
74344;SDS011;62776;50.518;6.732;2023-12-07T00:05:51;4.38;;;4.05;;
74344;SDS011;62776;50.518;6.732;2023-12-07T00:08:38;4.68;;;4.28;;
74344;SDS011;62776;50.518;6.732;2023-12-07T00:11:24;3.20;;;3.00;;
74344;SDS011;62776;50.518;6.732;2023-12-07T00:14:10;3.30;;;3.00;;
74344;SDS011;62776;50.518;6.732;2023-12-07T00:16:59;4.38;;;3.47;;
74344;SDS011;62776;50.518;6.732;2023-12-07T00:19:45;3.90;;;3.53;;
74344;SDS011;62776;50.518;6.732;2023-12-07T00:22:32;4.15;;;3.75;;
74344;SDS011;62776;50.518;6.732;2023-12-07T00:25:21;3.90;;;3.60;;
74344;SDS011;62776;50.518;6.732;2023-12-07T00:28:07;4.03;;;3.70;;
74344;SDS011;62776;50.518;6.732;2023-12-07T00:31:02;3.83;;;3.53;;
74344;SDS011;62776;50.518;6.732;2023-12-07T00:33:48;4.78;;;4.35;;
74344;SDS011;62776;50.518;6.732;2023-12-07T00:36:41;4.70;;;4.35;;
74344;SDS011;62776;50.518;6.732;2023-12-07T00:39:29;5.13;;;4.73;;
74344;SDS011;62776;50.518;6.732;2023-12-07T00:42:17;4.93;;;4.53;;
74344;SDS011;62776;50.518;6.732;2023-12-07T00:45:07;4.38;;;4.07;;
74344;SDS011;62776;50.518;6.732;2023-12-07T00:50:50;5.18;;;4.68;;
74344;SDS011;62776;50.518;6.732;2023-12-07T00:53:36;5.20;;;4.80;;
74344;SDS011;62776;50.518;6.732;2023-12-07T00:56:23;5.20;;;4.80;;
74344;SDS011;62776;50.518;6.732;2023-12-07T00:59:11;5.43;;;4.93;;
74344;SDS011;62776;50.518;6.732;2023-12-07T01:02:03;5.20;;;4.70;;
74344;SDS011;62776;50.518;6.732;2023-12-07T01:04:50;5.50;;;5.10;;
74344;SDS011;62776;50.518;6.732;2023-12-07T01:07:37;6.72;;;6.13;;
74344;SDS011;62776;50.518;6.732;2023-12-07T01:10:26;5.70;;;5.30;;
74344;SDS011;62776;50.518;6.732;2023-12-07T01:13:12;5.93;;;5.43;;
74344;SDS011;62776;50.518;6.732;2023-12-07T01:15:58;7.07;;;6.40;;
74344;SDS011;62776;50.518;6.732;2023-12-07T01:18:50;5.95;;;5.35;;
74344;SDS011;62776;50.518;6.732;2023-12-07T01:21:42;6.63;;;6.03;;
74344;SDS011;62776;50.518;6.732;2023-12-07T01:24:29;6.28;;;5.78;;
74344;SDS011;62776;50.518;6.732;2023-12-07T01:27:15;5.78;;;5.38;;
74344;SDS011;62776;50.518;6.732;2023-12-07T01:30:02;5.20;;;4.80;;
74344;SDS011;62776;50.518;6.732;2023-12-07T01:32:48;6.18;;;5.57;;
74344;SDS011;62776;50.518;6.732;2023-12-07T01:35:35;5.50;;;5.10;;
74344;SDS011;62776;50.518;6.732;2023-12-07T01:38:21;6.07;;;5.57;;
74344;SDS011;62776;50.518;6.732;2023-12-07T01:41:11;6.40;;;5.80;;
74344;SDS011;62776;50.518;6.732;2023-12-07T01:44:00;6.18;;;5.68;;
74344;SDS011;62776;50.518;6.732;2023-12-07T01:46:46;6.25;;;5.75;;
74344;SDS011;62776;50.518;6.732;2023-12-07T01:49:34;6.40;;;5.93;;
74344;SDS011;62776;50.518;6.732;2023-12-07T01:52:21;6.00;;;5.50;;
74344;SDS011;62776;50.518;6.732;2023-12-07T01:55:13;6.32;;;5.82;;
74344;SDS011;62776;50.518;6.732;2023-12-07T01:58:00;6.70;;;6.20;;
74344;SDS011;62776;50.518;6.732;2023-12-07T02:00:47;6.40;;;5.80;;
74344;SDS011;62776;50.518;6.732;2023-12-07T02:03:34;5.88;;;5.43;;
74344;SDS011;62776;50.518;6.732;2023-12-07T02:06:21;5.63;;;5.22;;
74344;SDS011;62776;50.518;6.732;2023-12-07T02:09:07;5.57;;;5.05;;
74344;SDS011;62776;50.518;6.732;2023-12-07T02:11:54;5.40;;;5.00;;
74344;SDS011;62776;50.518;6.732;2023-12-07T02:14:40;5.57;;;5.13;;
74344;SDS011;62776;50.518;6.732;2023-12-07T02:17:28;6.25;;;5.75;;
74344;SDS011;62776;50.518;6.732;2023-12-07T02:20:37;6.38;;;5.85;;
74344;SDS011;62776;50.518;6.732;2023-12-07T02:23:33;5.78;;;5.38;;
74344;SDS011;62776;50.518;6.732;2023-12-07T02:26:28;6.80;;;6.28;;
74344;SDS011;62776;50.518;6.732;2023-12-07T02:29:22;6.35;;;5.78;;
74344;SDS011;62776;50.518;6.732;2023-12-07T02:32:09;9.55;;;5.80;;
74344;SDS011;62776;50.518;6.732;2023-12-07T02:34:55;6.28;;;5.78;;
74344;SDS011;62776;50.518;6.732;2023-12-07T02:37:48;6.00;;;5.50;;
74344;SDS011;62776;50.518;6.732;2023-12-07T02:40:34;6.43;;;5.93;;
74344;SDS011;62776;50.518;6.732;2023-12-07T02:43:22;6.20;;;5.60;;
74344;SDS011;62776;50.518;6.732;2023-12-07T02:46:09;6.88;;;6.28;;
74344;SDS011;62776;50.518;6.732;2023-12-07T02:48:56;6.40;;;5.90;;
74344;SDS011;62776;50.518;6.732;2023-12-07T02:51:43;6.30;;;5.80;;
74344;SDS011;62776;50.518;6.732;2023-12-07T02:54:32;5.63;;;5.13;;
74344;SDS011;62776;50.518;6.732;2023-12-07T02:57:19;5.68;;;5.28;;
74344;SDS011;62776;50.518;6.732;2023-12-07T03:00:08;6.00;;;5.50;;
74344;SDS011;62776;50.518;6.732;2023-12-07T03:02:59;6.00;;;5.38;;
74344;SDS011;62776;50.518;6.732;2023-12-07T03:05:45;6.30;;;5.80;;
74344;SDS011;62776;50.518;6.732;2023-12-07T03:08:34;7.13;;;6.53;;
74344;SDS011;62776;50.518;6.732;2023-12-07T03:11:21;6.80;;;6.28;;
74344;SDS011;62776;50.518;6.732;2023-12-07T03:14:09;6.55;;;6.03;;
74344;SDS011;62776;50.518;6.732;2023-12-07T03:17:01;6.60;;;5.97;;
74344;SDS011;62776;50.518;6.732;2023-12-07T03:19:47;6.90;;;6.30;;
74344;SDS011;62776;50.518;6.732;2023-12-07T03:22:33;6.55;;;6.05;;
74344;SDS011;62776;50.518;6.732;2023-12-07T03:25:19;7.03;;;6.40;;
74344;SDS011;62776;50.518;6.732;2023-12-07T03:28:15;6.40;;;5.90;;
74344;SDS011;62776;50.518;6.732;2023-12-07T03:31:01;6.70;;;6.20;;
74344;SDS011;62776;50.518;6.732;2023-12-07T03:33:48;7.78;;;6.70;;
74344;SDS011;62776;50.518;6.732;2023-12-07T03:36:34;6.90;;;6.38;;
74344;SDS011;62776;50.518;6.732;2023-12-07T03:39:25;6.40;;;5.90;;
74344;SDS011;62776;50.518;6.732;2023-12-07T03:42:17;7.90;;;7.20;;
74344;SDS011;62776;50.518;6.732;2023-12-07T03:45:03;5.85;;;5.45;;
74344;SDS011;62776;50.518;6.732;2023-12-07T03:47:50;7.43;;;6.82;;
74344;SDS011;62776;50.518;6.732;2023-12-07T03:50:39;7.90;;;7.30;;
74344;SDS011;62776;50.518;6.732;2023-12-07T03:53:29;6.53;;;6.03;;
74344;SDS011;62776;50.518;6.732;2023-12-07T03:56:22;7.72;;;7.15;;
74344;SDS011;62776;50.518;6.732;2023-12-07T03:59:12;8.73;;;7.50;;
74344;SDS011;62776;50.518;6.732;2023-12-07T04:02:01;7.93;;;7.30;;
74344;SDS011;62776;50.518;6.732;2023-12-07T04:04:48;8.75;;;7.90;;
74344;SDS011;62776;50.518;6.732;2023-12-07T04:07:34;7.97;;;7.28;;
74344;SDS011;62776;50.518;6.732;2023-12-07T04:10:23;6.82;;;6.32;;
74344;SDS011;62776;50.518;6.732;2023-12-07T04:13:10;8.15;;;7.35;;
74344;SDS011;62776;50.518;6.732;2023-12-07T04:16:04;7.22;;;6.63;;
74344;SDS011;62776;50.518;6.732;2023-12-07T04:18:51;8.00;;;7.35;;
74344;SDS011;62776;50.518;6.732;2023-12-07T04:21:40;8.27;;;7.55;;
74344;SDS011;62776;50.518;6.732;2023-12-07T04:24:26;8.52;;;7.82;;
74344;SDS011;62776;50.518;6.732;2023-12-07T04:27:13;8.27;;;7.57;;
74344;SDS011;62776;50.518;6.732;2023-12-07T04:30:01;8.15;;;7.38;;
74344;SDS011;62776;50.518;6.732;2023-12-07T04:32:48;8.10;;;7.50;;
74344;SDS011;62776;50.518;6.732;2023-12-07T04:35:37;8.18;;;7.40;;
74344;SDS011;62776;50.518;6.732;2023-12-07T04:38:24;7.80;;;7.20;;
74344;SDS011;62776;50.518;6.732;2023-12-07T04:41:10;7.53;;;6.82;;
74344;SDS011;62776;50.518;6.732;2023-12-07T04:43:56;7.90;;;7.30;;
74344;SDS011;62776;50.518;6.732;2023-12-07T04:46:52;8.77;;;8.07;;
74344;SDS011;62776;50.518;6.732;2023-12-07T04:49:38;8.93;;;8.13;;
74344;SDS011;62776;50.518;6.732;2023-12-07T04:52:25;9.13;;;8.30;;
74344;SDS011;62776;50.518;6.732;2023-12-07T04:55:11;9.10;;;8.20;;
74344;SDS011;62776;50.518;6.732;2023-12-07T04:57:58;10.02;;;9.23;;
74344;SDS011;62776;50.518;6.732;2023-12-07T05:00:44;10.55;;;9.57;;
74344;SDS011;62776;50.518;6.732;2023-12-07T05:03:31;9.80;;;9.00;;
74344;SDS011;62776;50.518;6.732;2023-12-07T05:06:17;9.40;;;8.50;;
74344;SDS011;62776;50.518;6.732;2023-12-07T05:09:13;9.07;;;8.27;;
74344;SDS011;62776;50.518;6.732;2023-12-07T05:12:00;9.38;;;8.57;;
74344;SDS011;62776;50.518;6.732;2023-12-07T05:14:46;10.73;;;9.82;;
74344;SDS011;62776;50.518;6.732;2023-12-07T05:17:35;10.35;;;9.35;;
74344;SDS011;62776;50.518;6.732;2023-12-07T05:20:21;9.68;;;8.38;;
74344;SDS011;62776;50.518;6.732;2023-12-07T05:23:09;9.23;;;8.32;;
74344;SDS011;62776;50.518;6.732;2023-12-07T05:25:57;9.38;;;8.48;;
74344;SDS011;62776;50.518;6.732;2023-12-07T05:28:44;9.48;;;8.68;;
74344;SDS011;62776;50.518;6.732;2023-12-07T05:31:31;8.88;;;8.10;;
74344;SDS011;62776;50.518;6.732;2023-12-07T05:34:18;10.13;;;9.13;;
74344;SDS011;62776;50.518;6.732;2023-12-07T05:37:10;8.82;;;8.05;;
74344;SDS011;62776;50.518;6.732;2023-12-07T05:39:56;8.85;;;8.07;;
74344;SDS011;62776;50.518;6.732;2023-12-07T05:42:43;8.35;;;7.65;;
74344;SDS011;62776;50.518;6.732;2023-12-07T05:45:29;9.18;;;8.38;;
74344;SDS011;62776;50.518;6.732;2023-12-07T05:48:16;8.63;;;7.93;;
74344;SDS011;62776;50.518;6.732;2023-12-07T05:51:02;9.88;;;8.95;;
74344;SDS011;62776;50.518;6.732;2023-12-07T05:53:49;9.70;;;8.82;;
74344;SDS011;62776;50.518;6.732;2023-12-07T05:56:38;10.25;;;9.35;;
74344;SDS011;62776;50.518;6.732;2023-12-07T05:59:25;8.55;;;7.70;;
74344;SDS011;62776;50.518;6.732;2023-12-07T06:02:11;8.57;;;7.78;;
74344;SDS011;62776;50.518;6.732;2023-12-07T06:04:57;8.23;;;7.47;;
74344;SDS011;62776;50.518;6.732;2023-12-07T06:07:46;8.68;;;7.97;;
74344;SDS011;62776;50.518;6.732;2023-12-07T06:10:38;8.32;;;7.63;;
74344;SDS011;62776;50.518;6.732;2023-12-07T06:13:24;8.13;;;7.32;;
74344;SDS011;62776;50.518;6.732;2023-12-07T06:16:14;9.15;;;8.40;;
74344;SDS011;62776;50.518;6.732;2023-12-07T06:19:02;9.23;;;8.43;;
74344;SDS011;62776;50.518;6.732;2023-12-07T06:21:48;9.43;;;8.27;;
74344;SDS011;62776;50.518;6.732;2023-12-07T06:24:35;9.95;;;9.10;;
74344;SDS011;62776;50.518;6.732;2023-12-07T06:27:21;9.90;;;9.00;;
74344;SDS011;62776;50.518;6.732;2023-12-07T06:30:07;9.35;;;8.55;;
74344;SDS011;62776;50.518;6.732;2023-12-07T06:32:53;10.10;;;9.13;;
74344;SDS011;62776;50.518;6.732;2023-12-07T06:35:40;9.75;;;8.85;;
74344;SDS011;62776;50.518;6.732;2023-12-07T06:38:27;9.13;;;8.38;;
74344;SDS011;62776;50.518;6.732;2023-12-07T06:41:14;9.57;;;8.80;;
74344;SDS011;62776;50.518;6.732;2023-12-07T06:44:03;8.70;;;8.00;;
74344;SDS011;62776;50.518;6.732;2023-12-07T06:46:49;8.63;;;7.93;;
74344;SDS011;62776;50.518;6.732;2023-12-07T06:49:36;8.57;;;7.90;;
74344;SDS011;62776;50.518;6.732;2023-12-07T06:52:25;8.63;;;7.90;;
74344;SDS011;62776;50.518;6.732;2023-12-07T06:55:11;8.38;;;7.55;;
74344;SDS011;62776;50.518;6.732;2023-12-07T06:58:00;8.45;;;7.75;;
74344;SDS011;62776;50.518;6.732;2023-12-07T07:00:48;8.38;;;7.68;;
74344;SDS011;62776;50.518;6.732;2023-12-07T07:03:34;8.63;;;7.93;;
74344;SDS011;62776;50.518;6.732;2023-12-07T07:06:20;8.43;;;7.72;;
74344;SDS011;62776;50.518;6.732;2023-12-07T07:09:06;8.02;;;7.32;;
74344;SDS011;62776;50.518;6.732;2023-12-07T07:11:52;8.73;;;7.82;;
74344;SDS011;62776;50.518;6.732;2023-12-07T07:14:39;9.20;;;8.40;;
74344;SDS011;62776;50.518;6.732;2023-12-07T07:17:27;7.35;;;6.75;;
74344;SDS011;62776;50.518;6.732;2023-12-07T07:20:14;9.07;;;8.20;;
74344;SDS011;62776;50.518;6.732;2023-12-07T07:23:03;8.73;;;7.82;;
74344;SDS011;62776;50.518;6.732;2023-12-07T07:25:49;8.65;;;7.90;;
74344;SDS011;62776;50.518;6.732;2023-12-07T07:28:36;14.10;;;9.95;;
74344;SDS011;62776;50.518;6.732;2023-12-07T07:31:22;8.65;;;7.95;;
74344;SDS011;62776;50.518;6.732;2023-12-07T07:34:08;9.77;;;8.15;;
74344;SDS011;62776;50.518;6.732;2023-12-07T07:36:54;9.23;;;8.43;;
74344;SDS011;62776;50.518;6.732;2023-12-07T07:39:40;8.63;;;7.93;;
74344;SDS011;62776;50.518;6.732;2023-12-07T07:42:27;8.38;;;7.68;;
74344;SDS011;62776;50.518;6.732;2023-12-07T07:45:14;11.95;;;8.73;;
74344;SDS011;62776;50.518;6.732;2023-12-07T07:48:01;8.27;;;7.57;;
74344;SDS011;62776;50.518;6.732;2023-12-07T07:50:47;8.25;;;7.55;;
74344;SDS011;62776;50.518;6.732;2023-12-07T07:53:33;8.25;;;7.60;;
74344;SDS011;62776;50.518;6.732;2023-12-07T07:56:21;7.53;;;6.93;;
74344;SDS011;62776;50.518;6.732;2023-12-07T07:59:07;7.57;;;6.88;;
74344;SDS011;62776;50.518;6.732;2023-12-07T08:01:53;8.27;;;7.68;;
74344;SDS011;62776;50.518;6.732;2023-12-07T08:04:39;7.55;;;6.90;;
74344;SDS011;62776;50.518;6.732;2023-12-07T08:07:25;8.20;;;7.50;;
74344;SDS011;62776;50.518;6.732;2023-12-07T08:10:13;8.05;;;7.45;;
74344;SDS011;62776;50.518;6.732;2023-12-07T08:12:59;8.20;;;7.50;;
74344;SDS011;62776;50.518;6.732;2023-12-07T08:15:45;7.85;;;7.22;;
74344;SDS011;62776;50.518;6.732;2023-12-07T08:18:33;8.07;;;7.38;;
74344;SDS011;62776;50.518;6.732;2023-12-07T08:21:20;8.68;;;7.88;;
74344;SDS011;62776;50.518;6.732;2023-12-07T08:24:07;7.93;;;7.28;;
74344;SDS011;62776;50.518;6.732;2023-12-07T08:26:54;7.68;;;7.03;;
74344;SDS011;62776;50.518;6.732;2023-12-07T08:29:40;8.48;;;6.78;;
74344;SDS011;62776;50.518;6.732;2023-12-07T08:32:35;7.15;;;6.53;;
74344;SDS011;62776;50.518;6.732;2023-12-07T08:35:22;7.15;;;6.45;;
74344;SDS011;62776;50.518;6.732;2023-12-07T08:38:08;5.65;;;5.05;;
74344;SDS011;62776;50.518;6.732;2023-12-07T08:40:54;5.95;;;5.45;;
74344;SDS011;62776;50.518;6.732;2023-12-07T08:43:40;6.30;;;5.70;;
74344;SDS011;62776;50.518;6.732;2023-12-07T08:46:27;6.20;;;5.70;;
74344;SDS011;62776;50.518;6.732;2023-12-07T08:49:15;5.93;;;5.43;;
74344;SDS011;62776;50.518;6.732;2023-12-07T08:52:02;6.35;;;5.75;;
74344;SDS011;62776;50.518;6.732;2023-12-07T08:54:50;6.43;;;5.82;;
74344;SDS011;62776;50.518;6.732;2023-12-07T08:57:36;6.30;;;5.70;;
74344;SDS011;62776;50.518;6.732;2023-12-07T09:00:22;6.53;;;6.03;;
74344;SDS011;62776;50.518;6.732;2023-12-07T09:03:10;6.60;;;6.00;;
74344;SDS011;62776;50.518;6.732;2023-12-07T09:05:56;5.55;;;5.05;;
74344;SDS011;62776;50.518;6.732;2023-12-07T09:08:43;5.65;;;5.25;;
74344;SDS011;62776;50.518;6.732;2023-12-07T09:11:29;6.07;;;5.57;;
74344;SDS011;62776;50.518;6.732;2023-12-07T09:14:17;5.18;;;4.78;;
74344;SDS011;62776;50.518;6.732;2023-12-07T09:17:03;6.32;;;5.72;;
74344;SDS011;62776;50.518;6.732;2023-12-07T09:19:50;5.97;;;5.47;;
74344;SDS011;62776;50.518;6.732;2023-12-07T09:22:40;6.13;;;5.63;;
74344;SDS011;62776;50.518;6.732;2023-12-07T09:25:32;7.07;;;6.47;;
74344;SDS011;62776;50.518;6.732;2023-12-07T09:28:18;6.82;;;6.22;;
74344;SDS011;62776;50.518;6.732;2023-12-07T09:31:04;6.78;;;6.18;;
74344;SDS011;62776;50.518;6.732;2023-12-07T09:33:52;6.10;;;5.60;;
74344;SDS011;62776;50.518;6.732;2023-12-07T09:36:39;6.13;;;5.63;;
74344;SDS011;62776;50.518;6.732;2023-12-07T09:39:26;5.05;;;4.63;;
74344;SDS011;62776;50.518;6.732;2023-12-07T09:42:12;6.68;;;6.07;;
74344;SDS011;62776;50.518;6.732;2023-12-07T09:45:05;5.45;;;5.00;;
74344;SDS011;62776;50.518;6.732;2023-12-07T09:47:53;5.70;;;5.20;;
74344;SDS011;62776;50.518;6.732;2023-12-07T09:50:42;5.28;;;4.78;;
74344;SDS011;62776;50.518;6.732;2023-12-07T09:53:31;7.32;;;6.72;;
74344;SDS011;62776;50.518;6.732;2023-12-07T09:56:22;6.15;;;5.65;;
74344;SDS011;62776;50.518;6.732;2023-12-07T09:59:10;5.97;;;5.47;;
74344;SDS011;62776;50.518;6.732;2023-12-07T10:02:00;6.43;;;5.93;;
74344;SDS011;62776;50.518;6.732;2023-12-07T10:04:46;5.40;;;5.00;;
74344;SDS011;62776;50.518;6.732;2023-12-07T10:07:39;6.00;;;5.50;;
74344;SDS011;62776;50.518;6.732;2023-12-07T10:10:26;5.63;;;5.13;;
74344;SDS011;62776;50.518;6.732;2023-12-07T10:13:12;4.95;;;4.55;;
74344;SDS011;62776;50.518;6.732;2023-12-07T10:18:56;5.57;;;5.10;;
74344;SDS011;62776;50.518;6.732;2023-12-07T10:21:58;4.63;;;4.22;;
74344;SDS011;62776;50.518;6.732;2023-12-07T10:24:44;4.50;;;4.20;;
74344;SDS011;62776;50.518;6.732;2023-12-07T10:27:33;4.90;;;4.50;;
74344;SDS011;62776;50.518;6.732;2023-12-07T10:30:20;4.38;;;4.07;;
74344;SDS011;62776;50.518;6.732;2023-12-07T10:33:15;4.38;;;4.07;;
74344;SDS011;62776;50.518;6.732;2023-12-07T10:36:02;5.43;;;4.93;;
74344;SDS011;62776;50.518;6.732;2023-12-07T10:38:50;5.40;;;5.00;;
74344;SDS011;62776;50.518;6.732;2023-12-07T10:41:37;5.03;;;4.53;;
74344;SDS011;62776;50.518;6.732;2023-12-07T10:44:26;4.78;;;4.47;;
74344;SDS011;62776;50.518;6.732;2023-12-07T10:47:13;5.85;;;5.35;;
74344;SDS011;62776;50.518;6.732;2023-12-07T10:50:00;5.10;;;4.70;;
74344;SDS011;62776;50.518;6.732;2023-12-07T10:52:51;5.72;;;5.22;;
74344;SDS011;62776;50.518;6.732;2023-12-07T10:55:45;5.00;;;4.60;;
74344;SDS011;62776;50.518;6.732;2023-12-07T10:58:36;5.00;;;4.60;;
74344;SDS011;62776;50.518;6.732;2023-12-07T11:01:24;4.90;;;4.50;;
74344;SDS011;62776;50.518;6.732;2023-12-07T11:04:11;4.80;;;4.40;;
74344;SDS011;62776;50.518;6.732;2023-12-07T11:07:00;5.10;;;4.70;;
74344;SDS011;62776;50.518;6.732;2023-12-07T11:10:00;5.22;;;4.75;;
74344;SDS011;62776;50.518;6.732;2023-12-07T11:13:11;5.00;;;4.60;;
74344;SDS011;62776;50.518;6.732;2023-12-07T11:16:09;4.57;;;3.90;;
74344;SDS011;62776;50.518;6.732;2023-12-07T11:18:56;3.97;;;3.67;;
74344;SDS011;62776;50.518;6.732;2023-12-07T11:21:46;4.20;;;3.90;;
74344;SDS011;62776;50.518;6.732;2023-12-07T11:24:33;3.60;;;3.30;;
74344;SDS011;62776;50.518;6.732;2023-12-07T11:27:22;3.83;;;3.63;;
74344;SDS011;62776;50.518;6.732;2023-12-07T11:30:13;4.38;;;4.07;;
74344;SDS011;62776;50.518;6.732;2023-12-07T11:33:04;4.57;;;4.15;;
74344;SDS011;62776;50.518;6.732;2023-12-07T11:36:07;4.40;;;4.10;;
74344;SDS011;62776;50.518;6.732;2023-12-07T11:39:15;3.70;;;3.40;;
74344;SDS011;62776;50.518;6.732;2023-12-07T11:44:58;4.30;;;4.00;;
74344;SDS011;62776;50.518;6.732;2023-12-07T11:47:52;4.72;;;4.38;;
74344;SDS011;62776;50.518;6.732;2023-12-07T11:51:02;4.85;;;4.55;;
74344;SDS011;62776;50.518;6.732;2023-12-07T11:53:58;4.60;;;4.30;;
74344;SDS011;62776;50.518;6.732;2023-12-07T11:56:55;4.50;;;4.10;;
74344;SDS011;62776;50.518;6.732;2023-12-07T11:59:45;4.93;;;4.20;;
74344;SDS011;62776;50.518;6.732;2023-12-07T12:02:37;4.35;;;4.05;;
74344;SDS011;62776;50.518;6.732;2023-12-07T12:05:23;4.07;;;3.78;;
74344;SDS011;62776;50.518;6.732;2023-12-07T12:08:10;4.38;;;4.07;;
74344;SDS011;62776;50.518;6.732;2023-12-07T12:10:56;4.30;;;4.00;;
74344;SDS011;62776;50.518;6.732;2023-12-07T12:13:43;4.45;;;4.05;;
74344;SDS011;62776;50.518;6.732;2023-12-07T12:16:32;3.88;;;3.47;;
74344;SDS011;62776;50.518;6.732;2023-12-07T12:19:18;3.45;;;3.22;;
74344;SDS011;62776;50.518;6.732;2023-12-07T12:22:07;4.05;;;3.75;;
74344;SDS011;62776;50.518;6.732;2023-12-07T12:24:59;4.20;;;3.88;;
74344;SDS011;62776;50.518;6.732;2023-12-07T12:27:45;3.22;;;3.03;;
74344;SDS011;62776;50.518;6.732;2023-12-07T12:30:33;3.28;;;3.00;;
74344;SDS011;62776;50.518;6.732;2023-12-07T12:33:20;3.22;;;3.03;;
74344;SDS011;62776;50.518;6.732;2023-12-07T12:36:06;3.38;;;2.97;;
74344;SDS011;62776;50.518;6.732;2023-12-07T12:38:55;3.53;;;3.33;;
74344;SDS011;62776;50.518;6.732;2023-12-07T12:41:43;4.45;;;3.47;;
74344;SDS011;62776;50.518;6.732;2023-12-07T12:44:30;3.65;;;3.35;;
74344;SDS011;62776;50.518;6.732;2023-12-07T12:47:19;3.20;;;2.90;;
74344;SDS011;62776;50.518;6.732;2023-12-07T12:50:09;3.80;;;3.50;;
74344;SDS011;62776;50.518;6.732;2023-12-07T12:53:16;3.47;;;3.17;;
74344;SDS011;62776;50.518;6.732;2023-12-07T12:56:02;3.28;;;3.00;;
74344;SDS011;62776;50.518;6.732;2023-12-07T12:58:49;3.58;;;3.38;;
74344;SDS011;62776;50.518;6.732;2023-12-07T13:01:37;3.10;;;2.90;;
74344;SDS011;62776;50.518;6.732;2023-12-07T13:04:24;3.58;;;3.28;;
74344;SDS011;62776;50.518;6.732;2023-12-07T13:07:11;3.47;;;2.17;;
74344;SDS011;62776;50.518;6.732;2023-12-07T13:09:59;2.85;;;2.45;;
74344;SDS011;62776;50.518;6.732;2023-12-07T13:12:48;2.42;;;2.22;;
74344;SDS011;62776;50.518;6.732;2023-12-07T13:15:34;2.58;;;2.38;;
74344;SDS011;62776;50.518;6.732;2023-12-07T13:18:21;2.92;;;2.72;;
74344;SDS011;62776;50.518;6.732;2023-12-07T13:21:12;5.45;;;4.78;;
74344;SDS011;62776;50.518;6.732;2023-12-07T13:24:00;3.28;;;3.05;;
74344;SDS011;62776;50.518;6.732;2023-12-07T13:26:50;6.28;;;5.80;;
74344;SDS011;62776;50.518;6.732;2023-12-07T13:29:39;5.28;;;4.75;;
74344;SDS011;62776;50.518;6.732;2023-12-07T13:32:26;4.15;;;3.85;;
74344;SDS011;62776;50.518;6.732;2023-12-07T13:35:12;3.35;;;3.15;;
74344;SDS011;62776;50.518;6.732;2023-12-07T13:37:58;7.93;;;2.63;;
74344;SDS011;62776;50.518;6.732;2023-12-07T13:40:44;2.63;;;2.42;;
74344;SDS011;62776;50.518;6.732;2023-12-07T13:43:33;2.67;;;2.47;;
74344;SDS011;62776;50.518;6.732;2023-12-07T13:46:19;3.05;;;2.63;;
74344;SDS011;62776;50.518;6.732;2023-12-07T13:49:05;3.08;;;2.88;;
74344;SDS011;62776;50.518;6.732;2023-12-07T13:51:52;2.25;;;2.08;;
74344;SDS011;62776;50.518;6.732;2023-12-07T13:54:41;3.08;;;2.20;;
74344;SDS011;62776;50.518;6.732;2023-12-07T13:57:27;2.72;;;2.53;;
74344;SDS011;62776;50.518;6.732;2023-12-07T14:00:16;2.38;;;2.20;;
74344;SDS011;62776;50.518;6.732;2023-12-07T14:03:02;2.83;;;2.63;;
74344;SDS011;62776;50.518;6.732;2023-12-07T14:05:51;3.03;;;2.83;;
74344;SDS011;62776;50.518;6.732;2023-12-07T14:08:38;5.20;;;4.80;;
74344;SDS011;62776;50.518;6.732;2023-12-07T14:11:27;2.70;;;2.50;;
74344;SDS011;62776;50.518;6.732;2023-12-07T14:14:17;2.30;;;2.10;;
74344;SDS011;62776;50.518;6.732;2023-12-07T14:17:03;2.13;;;1.92;;
74344;SDS011;62776;50.518;6.732;2023-12-07T14:19:49;2.45;;;2.25;;
74344;SDS011;62776;50.518;6.732;2023-12-07T14:22:36;2.63;;;2.42;;
74344;SDS011;62776;50.518;6.732;2023-12-07T14:25:23;3.05;;;2.85;;
74344;SDS011;62776;50.518;6.732;2023-12-07T14:28:15;3.63;;;3.33;;
74344;SDS011;62776;50.518;6.732;2023-12-07T14:31:05;4.10;;;3.80;;
74344;SDS011;62776;50.518;6.732;2023-12-07T14:33:55;3.83;;;3.53;;
74344;SDS011;62776;50.518;6.732;2023-12-07T14:36:42;2.88;;;2.67;;
74344;SDS011;62776;50.518;6.732;2023-12-07T14:39:32;2.78;;;2.58;;
74344;SDS011;62776;50.518;6.732;2023-12-07T14:42:20;2.33;;;2.22;;
74344;SDS011;62776;50.518;6.732;2023-12-07T14:45:07;2.53;;;2.35;;
74344;SDS011;62776;50.518;6.732;2023-12-07T14:47:55;3.00;;;2.40;;
74344;SDS011;62776;50.518;6.732;2023-12-07T14:50:43;2.58;;;2.38;;
74344;SDS011;62776;50.518;6.732;2023-12-07T14:53:31;2.35;;;2.20;;
74344;SDS011;62776;50.518;6.732;2023-12-07T14:56:20;2.30;;;2.10;;
74344;SDS011;62776;50.518;6.732;2023-12-07T14:59:08;2.33;;;2.13;;
74344;SDS011;62776;50.518;6.732;2023-12-07T15:01:57;2.35;;;2.15;;
74344;SDS011;62776;50.518;6.732;2023-12-07T15:04:43;2.10;;;2.00;;
74344;SDS011;62776;50.518;6.732;2023-12-07T15:07:29;2.30;;;2.10;;
74344;SDS011;62776;50.518;6.732;2023-12-07T15:10:19;2.00;;;1.90;;
74344;SDS011;62776;50.518;6.732;2023-12-07T15:13:05;1.60;;;1.50;;
74344;SDS011;62776;50.518;6.732;2023-12-07T15:15:53;2.40;;;2.20;;
74344;SDS011;62776;50.518;6.732;2023-12-07T15:18:46;2.20;;;2.00;;
74344;SDS011;62776;50.518;6.732;2023-12-07T15:21:35;2.08;;;1.98;;
74344;SDS011;62776;50.518;6.732;2023-12-07T15:24:27;2.60;;;2.20;;
74344;SDS011;62776;50.518;6.732;2023-12-07T15:27:13;2.45;;;2.35;;
74344;SDS011;62776;50.518;6.732;2023-12-07T15:29:59;2.67;;;2.47;;
74344;SDS011;62776;50.518;6.732;2023-12-07T15:32:45;2.33;;;2.13;;
74344;SDS011;62776;50.518;6.732;2023-12-07T15:35:35;1.85;;;1.75;;
74344;SDS011;62776;50.518;6.732;2023-12-07T15:38:22;2.25;;;2.15;;
74344;SDS011;62776;50.518;6.732;2023-12-07T15:41:09;2.40;;;2.20;;
74344;SDS011;62776;50.518;6.732;2023-12-07T15:43:55;2.20;;;2.00;;
74344;SDS011;62776;50.518;6.732;2023-12-07T15:46:42;1.70;;;1.60;;
74344;SDS011;62776;50.518;6.732;2023-12-07T15:49:28;1.60;;;1.50;;
74344;SDS011;62776;50.518;6.732;2023-12-07T15:52:14;1.67;;;1.58;;
74344;SDS011;62776;50.518;6.732;2023-12-07T15:55:02;1.90;;;1.80;;
74344;SDS011;62776;50.518;6.732;2023-12-07T15:57:54;1.50;;;1.40;;
74344;SDS011;62776;50.518;6.732;2023-12-07T16:00:47;1.30;;;1.20;;
74344;SDS011;62776;50.518;6.732;2023-12-07T16:03:34;1.73;;;1.63;;
74344;SDS011;62776;50.518;6.732;2023-12-07T16:06:21;1.58;;;1.48;;
74344;SDS011;62776;50.518;6.732;2023-12-07T16:09:08;1.70;;;1.60;;
74344;SDS011;62776;50.518;6.732;2023-12-07T16:11:56;1.70;;;1.60;;
74344;SDS011;62776;50.518;6.732;2023-12-07T16:14:44;2.40;;;2.20;;
74344;SDS011;62776;50.518;6.732;2023-12-07T16:17:34;1.50;;;1.40;;
74344;SDS011;62776;50.518;6.732;2023-12-07T16:20:20;2.25;;;2.15;;
74344;SDS011;62776;50.518;6.732;2023-12-07T16:23:08;1.60;;;1.50;;
74344;SDS011;62776;50.518;6.732;2023-12-07T16:25:54;1.40;;;1.30;;
74344;SDS011;62776;50.518;6.732;2023-12-07T16:28:40;1.52;;;1.42;;
74344;SDS011;62776;50.518;6.732;2023-12-07T16:31:26;1.60;;;1.50;;
74344;SDS011;62776;50.518;6.732;2023-12-07T16:34:16;1.48;;;1.38;;
74344;SDS011;62776;50.518;6.732;2023-12-07T16:37:02;2.83;;;2.63;;
74344;SDS011;62776;50.518;6.732;2023-12-07T16:39:53;2.45;;;2.25;;
74344;SDS011;62776;50.518;6.732;2023-12-07T16:42:40;1.50;;;1.40;;
74344;SDS011;62776;50.518;6.732;2023-12-07T16:45:28;1.80;;;1.70;;
74344;SDS011;62776;50.518;6.732;2023-12-07T16:48:14;2.00;;;1.90;;
74344;SDS011;62776;50.518;6.732;2023-12-07T16:51:07;2.08;;;1.98;;
74344;SDS011;62776;50.518;6.732;2023-12-07T16:53:59;1.88;;;1.77;;
74344;SDS011;62776;50.518;6.732;2023-12-07T16:56:45;2.20;;;2.10;;
74344;SDS011;62776;50.518;6.732;2023-12-07T16:59:40;2.65;;;2.45;;
74344;SDS011;62776;50.518;6.732;2023-12-07T17:02:26;2.50;;;2.30;;